Terminal Aerodrome Forecast
Issued by NWS

Home | Current Version | Previous Version | Text Only | Print | Product List | Glossary On
Versions: 1 2 3 4 5 6 7 8 9 10 11 12 13 14 15 16 17 18 19 20 21 22 23
000
FTUS44 KBMX 260522 CCA
TAFMGM
TAF COR
KMGM 260522Z 2605/2706 04004KT P6SM BKN002
      TEMPO 2612/2614 SCT002 OVC004
     FM261400 14008KT P6SM SCT025 SCT050
     FM261700 18008KT P6SM VCTS BKN050CB
      TEMPO 2620/2622 1SM TSRA BR SCT009 OVC020CB=

USA.gov is the U.S. government's official web portal to all federal, state and local government web resources and services.